createdAt,value
2023-05-25T00:01:43.966Z,11.93
2023-05-25T00:04:11.360Z,11.88
2023-05-25T00:06:41.226Z,11.75
2023-05-25T00:09:08.204Z,11.84
2023-05-25T00:11:34.943Z,11.86
2023-05-25T00:14:01.665Z,11.97
2023-05-25T00:16:28.503Z,12.00
2023-05-25T00:18:57.699Z,11.89
2023-05-25T00:21:25.767Z,11.69
2023-05-25T00:23:52.633Z,11.53
2023-05-25T00:26:19.371Z,11.49
2023-05-25T00:28:46.494Z,11.06
2023-05-25T00:31:13.218Z,11.15
2023-05-25T00:33:39.958Z,11.39
2023-05-25T00:36:06.977Z,11.45
2023-05-25T00:38:33.664Z,11.37
2023-05-25T00:41:00.784Z,11.45
2023-05-25T00:43:27.480Z,11.52
2023-05-25T00:45:54.442Z,11.40
2023-05-25T00:48:22.035Z,11.01
2023-05-25T00:50:48.765Z,10.79
2023-05-25T00:53:15.624Z,11.08
2023-05-25T00:55:53.337Z,11.20
2023-05-25T00:58:22.273Z,11.24
2023-05-25T01:00:51.186Z,11.23
2023-05-25T01:03:22.553Z,11.09
2023-05-25T01:05:54.327Z,11.06
2023-05-25T01:08:23.305Z,11.10
2023-05-25T01:10:52.250Z,10.74
2023-05-25T01:13:20.940Z,10.73
2023-05-25T01:15:48.326Z,11.02
2023-05-25T01:18:15.978Z,10.96
2023-05-25T01:21:13.425Z,10.95
2023-05-25T01:23:50.430Z,10.91
2023-05-25T01:26:19.410Z,10.82
2023-05-25T01:28:52.069Z,10.82
2023-05-25T01:31:22.835Z,10.40
2023-05-25T01:33:53.892Z,10.35
2023-05-25T01:36:21.128Z,10.57
2023-05-25T01:38:48.746Z,10.77
2023-05-25T01:41:15.513Z,10.82
2023-05-25T01:43:42.876Z,10.80
2023-05-25T01:46:26.425Z,10.55
2023-05-25T01:49:02.824Z,10.34
2023-05-25T01:51:44.031Z,10.21
2023-05-25T01:54:44.528Z,10.48
2023-05-25T01:57:15.334Z,10.55
2023-05-25T01:59:46.617Z,10.69
2023-05-25T02:02:18.761Z,10.53
2023-05-25T02:04:47.038Z,10.30
2023-05-25T02:07:26.582Z,10.08
2023-05-25T02:09:53.375Z,9.92
2023-05-25T02:12:20.149Z,10.14
2023-05-25T02:14:48.821Z,10.36
2023-05-25T02:17:28.593Z,10.26
2023-05-25T02:20:12.288Z,10.25
2023-05-25T02:22:39.181Z,9.60
2023-05-25T02:25:06.289Z,10.08
2023-05-25T02:27:33.698Z,10.17
2023-05-25T02:30:00.572Z,10.26
2023-05-25T02:32:29.929Z,10.36
2023-05-25T02:34:56.909Z,10.41
2023-05-25T02:37:23.588Z,10.29
2023-05-25T02:39:50.536Z,10.43
2023-05-25T02:42:17.221Z,10.44
2023-05-25T02:44:48.390Z,10.36
2023-05-25T02:47:19.233Z,10.07
2023-05-25T02:49:46.233Z,9.96
2023-05-25T02:52:13.281Z,10.21
2023-05-25T02:54:40.395Z,10.34
2023-05-25T02:57:08.508Z,10.37
2023-05-25T02:59:35.465Z,10.27
2023-05-25T03:02:02.479Z,10.11
2023-05-25T03:04:31.246Z,9.97
2023-05-25T03:06:58.188Z,9.52
2023-05-25T03:09:37.168Z,9.55
2023-05-25T03:12:04.099Z,9.49
2023-05-25T03:14:30.832Z,9.42
2023-05-25T03:16:57.881Z,9.35
2023-05-25T03:19:24.738Z,9.24
2023-05-25T03:21:51.392Z,9.12
2023-05-25T03:24:18.104Z,9.28
2023-05-25T03:26:44.826Z,9.28
2023-05-25T03:29:13.293Z,9.31
2023-05-25T03:31:40.039Z,9.44
2023-05-25T03:34:07.095Z,9.63
2023-05-25T03:36:34.125Z,9.73
2023-05-25T03:39:01.207Z,9.82
2023-05-25T03:41:27.907Z,9.81
2023-05-25T03:43:54.675Z,9.69
2023-05-25T03:46:30.383Z,9.67
2023-05-25T03:49:06.771Z,9.54
2023-05-25T03:51:33.413Z,9.20
2023-05-25T03:54:00.171Z,8.91
2023-05-25T03:56:27.393Z,9.34
2023-05-25T03:58:57.107Z,9.52
2023-05-25T04:01:26.521Z,9.67
2023-05-25T04:03:53.307Z,9.74
2023-05-25T04:06:21.232Z,9.88
2023-05-25T04:08:48.091Z,9.96
2023-05-25T04:11:14.797Z,9.76
2023-05-25T04:13:41.540Z,9.79
2023-05-25T04:16:12.558Z,10.01
2023-05-25T04:18:39.242Z,10.22
2023-05-25T04:21:05.962Z,9.97
2023-05-25T04:23:34.143Z,9.66
2023-05-25T04:26:01.754Z,9.55
2023-05-25T04:28:28.540Z,10.13
2023-05-25T04:30:58.252Z,10.14
2023-05-25T04:33:25.072Z,10.43
2023-05-25T04:35:51.779Z,10.77
2023-05-25T04:38:18.539Z,11.37
2023-05-25T04:40:46.521Z,11.66
2023-05-25T04:43:13.850Z,11.63
2023-05-25T04:45:40.863Z,11.18
2023-05-25T04:48:07.809Z,10.79
2023-05-25T04:50:34.664Z,10.57
2023-05-25T04:53:01.419Z,10.43
2023-05-25T04:55:28.085Z,10.39
2023-05-25T04:57:55.209Z,10.57
2023-05-25T05:00:22.148Z,10.87
2023-05-25T05:02:49.200Z,11.21
2023-05-25T05:05:16.229Z,11.24
2023-05-25T05:07:43.248Z,11.30
2023-05-25T05:10:15.067Z,11.27
2023-05-25T05:12:41.760Z,10.98
2023-05-25T05:15:08.810Z,10.74
2023-05-25T05:17:35.514Z,10.66
2023-05-25T05:20:02.376Z,10.61
2023-05-25T05:22:29.191Z,10.50
2023-05-25T05:24:56.557Z,10.69
2023-05-25T05:27:23.432Z,10.61
2023-05-25T05:29:50.090Z,10.89
2023-05-25T05:32:16.737Z,11.27
2023-05-25T05:34:43.449Z,11.40
2023-05-25T05:37:10.197Z,11.38
2023-05-25T05:39:37.120Z,11.55
2023-05-25T05:42:04.009Z,11.56
2023-05-25T05:44:30.754Z,11.71
2023-05-25T05:47:01.046Z,11.62
2023-05-25T05:49:31.749Z,11.81
2023-05-25T05:51:59.379Z,12.04
2023-05-25T05:54:29.985Z,13.55
2023-05-25T05:56:57.457Z,13.76
2023-05-25T05:59:24.379Z,14.07
2023-05-25T06:01:51.233Z,13.90
2023-05-25T06:04:38.680Z,14.22
2023-05-25T06:07:05.620Z,14.60
2023-05-25T06:09:32.275Z,14.78
2023-05-25T06:11:59.069Z,15.68
2023-05-25T06:14:28.353Z,15.56
2023-05-25T06:16:55.627Z,15.80
2023-05-25T06:19:22.401Z,16.35
2023-05-25T06:21:49.096Z,16.71
2023-05-25T06:24:16.169Z,17.25
2023-05-25T06:26:42.874Z,17.15
2023-05-25T06:29:09.561Z,15.60
2023-05-25T06:31:37.313Z,15.42
2023-05-25T06:34:04.142Z,14.74
2023-05-25T06:36:32.091Z,14.53
2023-05-25T06:38:58.992Z,14.24
2023-05-25T06:41:26.303Z,14.44
2023-05-25T06:43:53.027Z,15.31
2023-05-25T06:46:19.775Z,14.85
2023-05-25T06:48:46.568Z,14.87
2023-05-25T06:51:13.635Z,15.50
2023-05-25T06:53:40.718Z,15.94
2023-05-25T06:56:07.502Z,16.26
2023-05-25T06:58:34.244Z,15.99
2023-05-25T07:01:01.276Z,16.07
2023-05-25T07:03:28.088Z,16.45
2023-05-25T07:05:55.208Z,16.29
2023-05-25T07:08:21.895Z,15.87
2023-05-25T07:10:50.116Z,15.77
2023-05-25T07:13:17.438Z,15.89
2023-05-25T07:15:53.103Z,15.75
2023-05-25T07:18:19.852Z,15.86
2023-05-25T07:20:46.636Z,15.59
2023-05-25T07:23:13.381Z,15.38
2023-05-25T07:25:41.574Z,15.74
2023-05-25T07:28:08.941Z,16.42
2023-05-25T07:30:49.574Z,16.67
2023-05-25T07:33:16.808Z,15.51
2023-05-25T07:35:46.464Z,15.30
2023-05-25T07:38:13.662Z,15.80
2023-05-25T07:40:49.463Z,16.28
2023-05-25T07:43:16.180Z,16.76
2023-05-25T07:45:43.239Z,16.59
2023-05-25T07:48:10.150Z,16.97
2023-05-25T07:50:49.077Z,17.31
2023-05-25T07:56:02.387Z,17.31
2023-05-25T07:58:29.261Z,16.54
2023-05-25T08:00:56.396Z,16.50
2023-05-25T08:03:31.694Z,15.95
2023-05-25T08:06:06.978Z,16.24
2023-05-25T08:08:36.361Z,16.01
2023-05-25T08:11:03.309Z,16.66
2023-05-25T08:13:29.956Z,16.43
2023-05-25T08:15:57.024Z,17.06
2023-05-25T08:18:23.681Z,16.84
2023-05-25T08:20:50.390Z,16.00
2023-05-25T08:23:18.035Z,15.71
2023-05-25T08:25:44.981Z,16.26
2023-05-25T08:28:13.413Z,16.40
2023-05-25T08:30:40.121Z,16.65
2023-05-25T08:33:07.366Z,16.40
2023-05-25T08:35:34.099Z,16.89
2023-05-25T08:38:00.774Z,17.21
2023-05-25T08:40:30.787Z,16.96
2023-05-25T08:42:57.560Z,17.05
2023-05-25T08:45:34.961Z,16.35
2023-05-25T08:48:10.749Z,16.49
2023-05-25T08:50:39.830Z,16.91
2023-05-25T08:53:12.235Z,16.04
2023-05-25T08:55:41.797Z,16.31
2023-05-25T08:58:34.405Z,16.51
2023-05-25T09:01:07.586Z,16.49
2023-05-25T09:03:36.361Z,16.45
2023-05-25T09:06:03.282Z,16.41
2023-05-25T09:08:30.968Z,16.88
2023-05-25T09:10:58.112Z,17.21
2023-05-25T09:13:24.905Z,17.28
2023-05-25T09:15:53.025Z,16.73
2023-05-25T09:18:20.034Z,16.98
2023-05-25T09:20:47.610Z,16.95
2023-05-25T09:23:15.309Z,16.28
2023-05-25T09:25:42.658Z,16.12
2023-05-25T09:30:42.039Z,16.62
2023-05-25T09:33:19.090Z,16.69
2023-05-25T09:35:46.709Z,16.48
2023-05-25T09:38:15.715Z,17.04
2023-05-25T09:40:42.890Z,17.20
2023-05-25T09:43:11.469Z,16.51
2023-05-25T09:45:38.584Z,16.85
2023-05-25T09:48:07.525Z,15.92
2023-05-25T09:50:36.265Z,15.86
2023-05-25T09:53:06.651Z,15.97
2023-05-25T09:55:44.373Z,16.41
2023-05-25T09:58:19.597Z,16.60
2023-05-25T10:00:46.745Z,16.70
2023-05-25T10:03:15.456Z,16.51
2023-05-25T10:05:42.320Z,17.01
2023-05-25T10:08:10.618Z,16.93
2023-05-25T10:10:39.605Z,16.97
2023-05-25T10:13:09.345Z,17.17
2023-05-25T10:15:39.796Z,17.35
2023-05-25T10:18:07.226Z,17.21
2023-05-25T10:20:35.329Z,16.71
2023-05-25T10:23:16.865Z,16.48
2023-05-25T10:25:49.068Z,16.75
2023-05-25T10:28:36.377Z,17.06
2023-05-25T10:31:04.344Z,17.15
2023-05-25T10:33:32.961Z,16.63
2023-05-25T10:36:10.700Z,17.73
2023-05-25T10:38:40.479Z,16.87
2023-05-25T10:41:10.897Z,16.73
2023-05-25T10:43:39.388Z,16.63
2023-05-25T10:46:07.162Z,16.61
2023-05-25T10:48:40.638Z,16.51
2023-05-25T10:51:11.952Z,16.97
2023-05-25T10:53:39.326Z,17.46
2023-05-25T10:56:07.474Z,16.94
2023-05-25T10:58:34.428Z,17.05
2023-05-25T11:01:12.055Z,17.15
2023-05-25T11:03:44.989Z,17.71
2023-05-25T11:06:12.483Z,17.14
2023-05-25T11:08:56.091Z,17.27
2023-05-25T11:11:42.656Z,17.40
2023-05-25T11:14:29.993Z,17.11
2023-05-25T11:17:14.804Z,17.91
2023-05-25T11:19:54.269Z,17.91
2023-05-25T11:22:23.335Z,17.79
2023-05-25T11:24:51.721Z,17.68
2023-05-25T11:27:24.075Z,17.51
2023-05-25T11:29:52.138Z,17.23
2023-05-25T11:32:18.844Z,17.53
2023-05-25T11:34:47.970Z,17.06
2023-05-25T11:37:30.341Z,17.08
2023-05-25T11:39:57.650Z,16.99
2023-05-25T11:42:25.625Z,16.92
2023-05-25T11:44:53.862Z,16.79
2023-05-25T11:47:25.928Z,16.59
2023-05-25T11:49:56.814Z,16.77
2023-05-25T11:52:24.624Z,16.58
2023-05-25T11:54:53.361Z,16.83
2023-05-25T11:57:25.222Z,16.57
2023-05-25T11:59:58.123Z,16.62
2023-05-25T12:02:25.942Z,16.32
2023-05-25T12:04:58.591Z,16.57
2023-05-25T12:07:27.854Z,16.73
2023-05-25T12:10:09.636Z,16.65
2023-05-25T12:12:53.278Z,16.67
2023-05-25T12:15:26.092Z,17.18
2023-05-25T12:17:54.699Z,16.75
2023-05-25T12:20:22.721Z,16.67
2023-05-25T12:22:50.134Z,17.45
2023-05-25T12:25:21.770Z,17.29
2023-05-25T12:27:48.715Z,17.19
2023-05-25T12:30:15.755Z,17.39
2023-05-25T12:33:01.688Z,17.48
2023-05-25T12:35:29.999Z,17.01
2023-05-25T12:38:13.429Z,17.20
2023-05-25T12:40:42.589Z,17.40
2023-05-25T12:43:12.266Z,16.73
2023-05-25T12:45:44.327Z,17.52
2023-05-25T12:48:12.236Z,17.50
2023-05-25T12:50:41.113Z,16.80
2023-05-25T12:53:08.691Z,17.07
2023-05-25T12:55:36.432Z,17.24
2023-05-25T12:58:07.735Z,16.96
2023-05-25T13:00:39.589Z,16.86
2023-05-25T13:03:07.938Z,16.85
2023-05-25T13:05:37.815Z,17.45
2023-05-25T13:08:06.328Z,18.04
2023-05-25T13:10:38.908Z,18.02
2023-05-25T13:13:06.904Z,18.15
2023-05-25T13:15:33.759Z,17.72
2023-05-25T13:18:00.769Z,17.36
2023-05-25T13:20:30.762Z,17.58
2023-05-25T13:22:59.243Z,17.42
2023-05-25T13:25:28.148Z,17.36
2023-05-25T13:27:58.144Z,16.82
2023-05-25T13:30:25.337Z,17.45
2023-05-25T13:32:52.902Z,17.28
2023-05-25T13:35:34.119Z,16.79
2023-05-25T13:38:03.914Z,16.79
2023-05-25T13:40:30.759Z,16.94
2023-05-25T13:42:57.429Z,16.84
2023-05-25T13:45:24.609Z,16.77
2023-05-25T13:47:51.633Z,16.86
2023-05-25T13:50:18.797Z,17.37
2023-05-25T13:52:45.538Z,16.82
2023-05-25T13:55:13.074Z,16.85
2023-05-25T13:57:39.761Z,16.98
2023-05-25T14:00:08.521Z,16.61
2023-05-25T14:02:35.863Z,16.79
2023-05-25T14:05:03.368Z,16.81
2023-05-25T14:07:30.209Z,16.62
2023-05-25T14:09:58.193Z,16.96
2023-05-25T14:12:26.583Z,17.13
2023-05-25T14:14:53.386Z,17.22
2023-05-25T14:17:20.039Z,17.58
2023-05-25T14:19:47.089Z,18.01
2023-05-25T14:22:14.717Z,18.07
2023-05-25T14:24:42.051Z,17.75
2023-05-25T14:27:09.042Z,17.92
2023-05-25T14:29:36.046Z,17.18
2023-05-25T14:32:03.552Z,17.60
2023-05-25T14:34:30.565Z,17.68
2023-05-25T14:36:57.656Z,17.44
2023-05-25T14:39:25.892Z,17.25
2023-05-25T14:41:52.731Z,17.19
2023-05-25T14:44:19.856Z,17.10
2023-05-25T14:46:46.923Z,17.27
2023-05-25T14:49:13.936Z,17.21
2023-05-25T14:51:40.787Z,16.91
2023-05-25T14:54:07.990Z,17.69
2023-05-25T14:56:37.892Z,17.63
2023-05-25T14:59:04.687Z,17.67
2023-05-25T15:01:34.322Z,17.58
2023-05-25T15:04:02.479Z,17.46
2023-05-25T15:06:29.359Z,17.13
2023-05-25T15:08:56.116Z,17.22
2023-05-25T15:11:22.818Z,17.02
2023-05-25T15:13:49.509Z,17.60
2023-05-25T15:16:17.419Z,17.52
2023-05-25T15:18:45.061Z,18.03
2023-05-25T15:21:13.044Z,17.80
2023-05-25T15:23:39.753Z,17.62
2023-05-25T15:26:08.863Z,17.21
2023-05-25T15:28:36.790Z,17.39
2023-05-25T15:31:04.334Z,17.54
2023-05-25T15:33:48.585Z,17.93
2023-05-25T15:36:19.482Z,17.92
2023-05-25T15:38:49.471Z,17.90
2023-05-25T15:41:18.417Z,17.88
2023-05-25T15:43:58.625Z,18.17
2023-05-25T15:46:26.957Z,17.34
2023-05-25T15:48:54.543Z,17.63
2023-05-25T15:51:22.329Z,17.16
2023-05-25T15:53:50.030Z,17.30
2023-05-25T15:56:17.598Z,17.29
2023-05-25T15:58:49.752Z,17.04
2023-05-25T16:01:17.174Z,17.03
2023-05-25T16:03:45.346Z,17.19
2023-05-25T16:06:12.486Z,17.31
2023-05-25T16:08:39.797Z,17.52
2023-05-25T16:11:10.690Z,17.80
2023-05-25T16:13:37.523Z,17.61
2023-05-25T16:16:04.551Z,17.33
2023-05-25T16:18:31.523Z,17.80
2023-05-25T16:20:59.017Z,17.83
2023-05-25T16:23:25.891Z,17.62
2023-05-25T16:25:52.864Z,17.77
2023-05-25T16:28:19.597Z,17.96
2023-05-25T16:30:50.005Z,17.94
2023-05-25T16:33:17.159Z,17.68
2023-05-25T16:35:44.074Z,17.77
2023-05-25T16:38:12.381Z,18.01
2023-05-25T16:40:44.136Z,17.75
2023-05-25T16:43:11.204Z,17.62
2023-05-25T16:45:37.908Z,17.60
2023-05-25T16:48:04.931Z,17.49
2023-05-25T16:50:31.672Z,17.20
2023-05-25T16:52:58.733Z,17.17
2023-05-25T16:55:26.316Z,16.95
2023-05-25T16:57:53.295Z,16.89
2023-05-25T17:00:20.893Z,16.85
2023-05-25T17:02:47.866Z,17.09
2023-05-25T17:05:14.747Z,16.93
2023-05-25T17:07:42.018Z,16.73
2023-05-25T17:10:09.239Z,16.64
2023-05-25T17:12:36.658Z,16.55
2023-05-25T17:15:04.520Z,16.77
2023-05-25T17:17:31.694Z,16.52
2023-05-25T17:19:59.567Z,16.13
2023-05-25T17:22:26.370Z,16.53
2023-05-25T17:24:53.092Z,16.56
2023-05-25T17:27:19.742Z,16.28
2023-05-25T17:29:46.537Z,16.35
2023-05-25T17:32:13.357Z,16.27
2023-05-25T17:34:40.093Z,16.41
2023-05-25T17:37:07.080Z,16.35
2023-05-25T17:39:33.768Z,16.08
2023-05-25T17:42:01.750Z,16.12
2023-05-25T17:44:28.439Z,16.13
2023-05-25T17:46:55.104Z,16.11
2023-05-25T17:49:21.882Z,16.28
2023-05-25T17:51:48.555Z,16.32
2023-05-25T17:54:18.489Z,16.32
2023-05-25T17:56:45.965Z,16.09
2023-05-25T17:59:12.796Z,16.27
2023-05-25T18:01:40.834Z,16.16
2023-05-25T18:04:07.730Z,16.20
2023-05-25T18:06:34.604Z,16.11
2023-05-25T18:09:01.372Z,16.02
2023-05-25T18:11:29.290Z,16.06
2023-05-25T18:13:55.972Z,16.22
2023-05-25T18:16:22.671Z,16.01
2023-05-25T18:18:49.320Z,16.01
2023-05-25T18:21:16.151Z,16.09
2023-05-25T18:23:42.829Z,15.99
2023-05-25T18:26:09.508Z,15.99
2023-05-25T18:28:36.245Z,15.52
2023-05-25T18:31:02.960Z,15.70
2023-05-25T18:33:29.930Z,15.65
2023-05-25T18:35:56.599Z,15.79
2023-05-25T18:38:23.284Z,15.53
2023-05-25T18:40:49.948Z,15.42
2023-05-25T18:43:16.665Z,15.62
2023-05-25T18:45:43.917Z,15.44
2023-05-25T18:48:11.021Z,15.36
2023-05-25T18:50:39.393Z,15.46
2023-05-25T18:53:07.750Z,15.22
2023-05-25T18:55:34.556Z,15.71
2023-05-25T18:58:01.528Z,15.54
2023-05-25T19:00:28.196Z,15.26
2023-05-25T19:02:54.998Z,15.37
2023-05-25T19:05:22.570Z,15.47
2023-05-25T19:10:19.140Z,15.32
2023-05-25T19:12:45.811Z,15.34
2023-05-25T19:15:13.388Z,15.13
2023-05-25T19:17:40.176Z,15.25
2023-05-25T19:20:07.685Z,15.26
2023-05-25T19:22:35.968Z,15.38
2023-05-25T19:25:02.722Z,15.17
2023-05-25T19:27:29.833Z,14.89
2023-05-25T19:29:56.515Z,14.65
2023-05-25T19:32:23.325Z,14.52
2023-05-25T19:34:50.045Z,14.63
2023-05-25T19:37:16.830Z,14.94
2023-05-25T19:39:43.564Z,15.07
2023-05-25T19:42:10.470Z,15.11
2023-05-25T19:44:37.260Z,15.17
2023-05-25T19:47:04.121Z,14.96
2023-05-25T19:49:30.866Z,14.59
2023-05-25T19:51:57.618Z,14.69
2023-05-25T19:54:24.304Z,14.49
2023-05-25T19:56:50.971Z,14.57
2023-05-25T19:59:17.745Z,14.43
2023-05-25T20:01:44.472Z,14.52
2023-05-25T20:04:11.404Z,14.71
2023-05-25T20:06:38.797Z,14.70
2023-05-25T20:09:06.108Z,14.49
2023-05-25T20:11:32.846Z,14.55
2023-05-25T20:13:59.483Z,14.30
2023-05-25T20:16:26.631Z,14.30
2023-05-25T20:18:53.391Z,14.46
2023-05-25T20:21:20.893Z,14.56
2023-05-25T20:23:47.678Z,14.55
2023-05-25T20:26:14.359Z,14.53
2023-05-25T20:28:41.182Z,14.42
2023-05-25T20:31:08.605Z,14.10
2023-05-25T20:33:35.350Z,14.20
2023-05-25T20:36:02.051Z,14.46
2023-05-25T20:38:28.958Z,14.63
2023-05-25T20:40:55.690Z,14.74
2023-05-25T20:43:22.424Z,14.76
2023-05-25T20:45:49.292Z,14.56
2023-05-25T20:48:16.095Z,14.54
2023-05-25T20:50:42.841Z,14.72
2023-05-25T20:53:10.813Z,14.74
2023-05-25T20:55:37.551Z,14.80
2023-05-25T20:58:04.240Z,14.91
2023-05-25T21:00:30.973Z,14.90
2023-05-25T21:02:57.671Z,14.77
2023-05-25T21:05:24.443Z,14.78
2023-05-25T21:07:51.927Z,14.52
2023-05-25T21:10:18.752Z,14.80
2023-05-25T21:12:45.654Z,14.68
2023-05-25T21:15:12.377Z,14.63
2023-05-25T21:17:39.086Z,14.47
2023-05-25T21:20:06.271Z,14.35
2023-05-25T21:22:33.003Z,14.32
2023-05-25T21:24:59.680Z,14.32
2023-05-25T21:27:26.324Z,14.21
2023-05-25T21:29:54.708Z,14.01
2023-05-25T21:32:21.524Z,14.05
2023-05-25T21:34:48.293Z,14.06
2023-05-25T21:37:15.129Z,13.93
2023-05-25T21:39:41.883Z,13.97
2023-05-25T21:42:09.871Z,13.98
2023-05-25T21:44:36.630Z,13.91
2023-05-25T21:47:05.103Z,13.81
2023-05-25T21:49:31.897Z,13.89
2023-05-25T21:51:58.603Z,13.72
2023-05-25T21:54:25.328Z,13.58
2023-05-25T21:56:52.061Z,13.30
2023-05-25T21:59:18.707Z,13.12
2023-05-25T22:01:45.738Z,13.05
2023-05-25T22:04:12.425Z,12.80
2023-05-25T22:06:39.118Z,12.79
2023-05-25T22:09:05.988Z,12.61
2023-05-25T22:11:33.979Z,12.87
2023-05-25T22:14:03.088Z,13.11
2023-05-25T22:16:29.812Z,13.16
2023-05-25T22:18:56.560Z,13.12
2023-05-25T22:21:23.335Z,13.23
2023-05-25T22:23:50.023Z,13.25
2023-05-25T22:26:16.847Z,13.07
2023-05-25T22:28:43.525Z,13.17
2023-05-25T22:31:11.575Z,13.09
2023-05-25T22:33:38.449Z,13.04
2023-05-25T22:36:05.236Z,12.92
2023-05-25T22:38:32.010Z,13.06
2023-05-25T22:40:58.694Z,13.20
2023-05-25T22:43:27.032Z,13.07
2023-05-25T22:45:54.205Z,13.11
2023-05-25T22:48:21.598Z,13.15
2023-05-25T22:50:48.349Z,13.27
2023-05-25T22:53:15.067Z,13.07
2023-05-25T22:55:41.739Z,13.18
2023-05-25T22:58:08.503Z,13.03
2023-05-25T23:00:35.179Z,13.09
2023-05-25T23:03:04.172Z,13.07
2023-05-25T23:05:31.327Z,13.07
2023-05-25T23:07:59.579Z,13.15
2023-05-25T23:10:26.353Z,13.15
2023-05-25T23:12:54.751Z,13.16
2023-05-25T23:15:22.473Z,13.14
2023-05-25T23:17:49.429Z,13.12
2023-05-25T23:20:16.394Z,13.06
2023-05-25T23:22:43.219Z,12.88
2023-05-25T23:25:10.070Z,12.94
2023-05-25T23:27:36.734Z,12.97
2023-05-25T23:30:04.077Z,13.07
2023-05-25T23:32:30.851Z,12.96
2023-05-25T23:34:57.654Z,13.08
2023-05-25T23:37:24.331Z,13.00
2023-05-25T23:39:51.304Z,12.93
2023-05-25T23:42:18.692Z,12.97
2023-05-25T23:44:46.588Z,12.87
2023-05-25T23:47:13.547Z,12.84
2023-05-25T23:49:40.248Z,12.70
2023-05-25T23:52:06.945Z,12.79
2023-05-25T23:54:33.613Z,12.81
2023-05-25T23:57:00.350Z,12.87
2023-05-25T23:59:27.025Z,12.78
